Time;durP1;ratioP1;P1;durP2;ratioP2;P2;SDS_P1;SDS_P2;PMS_P1;PMS_P2;Temp;Humidity;BMP_temperature;BMP_pressure;BME280_temperature;BME280_humidity;BME280_pressure;Samples;Min_cycle;Max_cycle;Signal;HPM_P1;HPM_P2
2023/11/16 00:01:52;;;;;;;0.90;0.80;;;;;;;12.56;65.10;99612.44;5092683;28;20475;-40
2023/11/16 00:04:17;;;;;;;1.50;0.70;;;;;;;12.76;65.61;99622.13;5092431;28;20060;-40
2023/11/16 00:06:43;;;;;;;0.68;0.68;;;;;;;12.40;65.44;99626.38;5092700;28;20051;-39
2023/11/16 00:09:09;;;;;;;0.93;0.65;;;;;;;12.46;65.77;99620.16;5101742;28;20102;-39
2023/11/16 00:11:35;;;;;;;0.75;0.70;;;;;;;12.35;65.34;99616.31;5113065;28;20042;-40
2023/11/16 00:14:01;;;;;;;1.00;0.70;;;;;;;12.46;64.95;99606.81;5112817;28;20020;-39
2023/11/16 00:16:28;;;;;;;1.30;0.80;;;;;;;12.49;64.37;99614.38;5112963;28;20043;-38
2023/11/16 00:18:54;;;;;;;0.60;0.60;;;;;;;12.16;65.39;99601.31;5109192;28;20045;-40
2023/11/16 00:21:19;;;;;;;0.63;0.60;;;;;;;12.28;65.04;99612.88;5091990;28;20028;-40
2023/11/16 00:23:45;;;;;;;1.33;0.73;;;;;;;12.42;65.23;99601.09;5091956;28;20088;-39
2023/11/16 00:26:11;;;;;;;0.73;0.47;;;;;;;12.27;65.70;99597.94;5093696;28;20020;-40
2023/11/16 00:28:37;;;;;;;1.05;0.60;;;;;;;12.23;66.09;99594.06;5102037;28;20023;-39
2023/11/16 00:31:02;;;;;;;1.83;0.50;;;;;;;12.43;64.78;99593.88;5092012;28;20444;-40
2023/11/16 00:33:29;;;;;;;1.02;0.93;;;;;;;12.57;64.71;99592.75;5092094;28;20495;-40
2023/11/16 00:35:58;;;;;;;0.45;0.45;;;;;;;12.69;64.50;99595.50;5091913;28;20024;-40
2023/11/16 00:38:27;;;;;;;0.40;0.40;;;;;;;12.21;65.17;99593.47;5091815;28;20051;-40
2023/11/16 00:40:55;;;;;;;0.63;0.50;;;;;;;12.16;65.23;99582.63;5091583;28;20035;-38
2023/11/16 00:43:21;;;;;;;0.50;0.50;;;;;;;12.36;64.86;99591.28;5091133;28;20067;-40
2023/11/16 00:45:46;;;;;;;0.85;0.60;;;;;;;12.46;64.80;99591.59;5091302;28;20105;-40
2023/11/16 00:48:12;;;;;;;0.73;0.55;;;;;;;12.79;63.34;99595.78;5092154;28;20059;-40
2023/11/16 00:50:37;;;;;;;0.40;0.40;;;;;;;12.60;64.86;99599.47;5107151;27;20394;-39
2023/11/16 00:53:02;;;;;;;0.80;0.50;;;;;;;12.90;63.43;99597.72;5133422;27;20098;-39
2023/11/16 00:55:31;;;;;;;0.40;0.40;;;;;;;12.64;64.09;99609.50;5108586;27;20067;-39
2023/11/16 00:57:57;;;;;;;0.53;0.53;;;;;;;12.48;65.71;99602.06;5098867;28;20015;-40
2023/11/16 01:00:23;;;;;;;0.75;0.47;;;;;;;12.31;65.28;99612.47;5108028;28;20500;-39
2023/11/16 01:02:49;;;;;;;1.13;0.65;;;;;;;12.16;65.67;99603.97;5092731;28;20428;-40
2023/11/16 01:05:17;;;;;;;0.70;0.50;;;;;;;12.05;66.16;99606.31;5098369;28;20019;-40
2023/11/16 01:07:43;;;;;;;0.55;0.52;;;;;;;11.95;66.53;99619.28;5110075;28;20097;-40
2023/11/16 01:10:15;;;;;;;0.50;0.50;;;;;;;12.15;65.52;99610.31;5111999;28;20020;-37
2023/11/16 01:12:43;;;;;;;0.70;0.60;;;;;;;12.03;66.29;99611.03;5098326;28;20030;-40
2023/11/16 01:15:10;;;;;;;0.55;0.55;;;;;;;12.05;66.49;99605.47;5112451;28;20019;-40
2023/11/16 01:17:36;;;;;;;0.47;0.47;;;;;;;12.00;66.29;99606.13;5112052;28;20028;-41
2023/11/16 01:20:06;;;;;;;1.55;0.70;;;;;;;12.00;66.60;99619.47;5112224;28;20119;-40
2023/11/16 01:22:40;;;;;;;1.05;0.77;;;;;;;11.99;66.59;99633.81;5112117;28;20034;-40
2023/11/16 01:25:15;;;;;;;0.90;0.70;;;;;;;11.83;66.92;99648.47;5111862;28;20544;-38
2023/11/16 01:27:45;;;;;;;0.80;0.57;;;;;;;11.87;66.60;99652.31;5111730;28;20020;-39
2023/11/16 01:30:12;;;;;;;0.90;0.65;;;;;;;11.89;67.00;99652.97;5112210;28;20023;-40
2023/11/16 01:32:38;;;;;;;0.60;0.60;;;;;;;12.01;66.63;99654.94;5111971;28;20098;-26
2023/11/16 01:35:04;;;;;;;0.90;0.70;;;;;;;12.02;66.44;99656.59;5112217;28;20050;-26
2023/11/16 01:37:30;;;;;;;1.38;0.90;;;;;;;12.07;66.48;99652.25;5112097;28;20539;-27
2023/11/16 01:39:55;;;;;;;1.20;0.80;;;;;;;12.17;65.78;99659.78;5111623;28;20110;-26
2023/11/16 01:42:20;;;;;;;1.05;0.85;;;;;;;12.03;66.39;99655.53;5111723;28;20106;-26
2023/11/16 01:44:46;;;;;;;0.82;0.70;;;;;;;12.09;65.71;99662.72;5111805;28;20478;-27
2023/11/16 01:47:14;;;;;;;0.93;0.73;;;;;;;12.15;65.53;99659.19;5111492;28;20084;-27
2023/11/16 01:49:40;;;;;;;0.80;0.80;;;;;;;12.08;65.97;99655.72;5111937;28;20028;-26
2023/11/16 01:52:06;;;;;;;2.80;0.95;;;;;;;12.11;65.92;99653.44;5111575;28;20368;-27
2023/11/16 01:54:35;;;;;;;0.80;0.80;;;;;;;11.78;67.00;99655.47;5111760;28;20167;-27
2023/11/16 01:57:03;;;;;;;1.30;0.90;;;;;;;11.71;67.47;99674.97;5111464;28;20490;-26
2023/11/16 01:59:31;;;;;;;1.10;1.00;;;;;;;11.64;67.24;99668.06;5111057;28;20504;-26
2023/11/16 02:01:57;;;;;;;0.80;0.80;;;;;;;11.57;68.01;99676.06;5111237;28;20027;-25
2023/11/16 02:04:22;;;;;;;1.27;0.90;;;;;;;11.84;66.73;99678.59;5111499;28;20028;-27
2023/11/16 02:06:48;;;;;;;1.40;1.05;;;;;;;11.67;67.03;99668.44;5110084;28;20023;-27
2023/11/16 02:09:15;;;;;;;5.00;1.00;;;;;;;11.74;66.46;99673.72;5111463;28;20046;-27
2023/11/16 02:11:40;;;;;;;1.30;1.02;;;;;;;11.93;65.72;99683.50;5111151;28;20019;-27
2023/11/16 02:14:06;;;;;;;1.00;0.90;;;;;;;11.74;65.79;99671.06;5111081;28;20084;-27
2023/11/16 02:16:32;;;;;;;0.80;0.80;;;;;;;11.63;65.67;99675.25;5110916;28;20019;-27
2023/11/16 02:19:07;;;;;;;1.38;0.98;;;;;;;11.62;66.52;99681.59;5124787;28;20030;-28
2023/11/16 02:21:40;;;;;;;0.80;0.80;;;;;;;11.47;65.76;99679.19;5127435;28;20523;-27
2023/11/16 02:24:08;;;;;;;1.50;1.15;;;;;;;11.67;65.98;99680.94;5128724;28;20096;-25
2023/11/16 02:26:33;;;;;;;0.73;0.73;;;;;;;11.65;65.32;99691.00;5132214;28;20031;-26
2023/11/16 02:28:59;;;;;;;1.20;1.10;;;;;;;11.49;65.83;99693.09;5112652;28;20024;-27
2023/11/16 02:31:24;;;;;;;1.10;0.90;;;;;;;11.71;64.68;99669.66;5111297;28;20103;-26
2023/11/16 02:33:49;;;;;;;1.33;1.13;;;;;;;11.52;65.59;99673.22;5111458;28;20118;-25
2023/11/16 02:36:15;;;;;;;1.67;0.93;;;;;;;11.80;64.65;99674.72;5107476;28;20035;-38
2023/11/16 02:38:44;;;;;;;0.80;0.80;;;;;;;11.64;65.34;99662.72;5090601;28;20024;-39
2023/11/16 02:41:10;;;;;;;1.13;0.93;;;;;;;11.73;64.65;99662.25;5090720;28;20103;-40
2023/11/16 02:43:35;;;;;;;1.85;1.02;;;;;;;11.65;64.77;99664.34;5090919;28;20106;-40
2023/11/16 02:46:03;;;;;;;1.10;0.90;;;;;;;11.32;65.14;99666.09;5090181;28;20150;-40
2023/11/16 02:48:29;;;;;;;1.10;1.00;;;;;;;11.38;65.66;99671.63;5089895;28;20128;-40
2023/11/16 02:50:54;;;;;;;1.00;0.90;;;;;;;11.34;65.89;99677.38;5090513;28;20043;-38
2023/11/16 02:53:20;;;;;;;1.48;1.00;;;;;;;11.32;65.10;99678.63;5090716;28;20031;-40
2023/11/16 02:55:45;;;;;;;1.17;1.02;;;;;;;11.42;65.71;99668.31;5090896;28;20122;-39
2023/11/16 02:58:11;;;;;;;1.50;1.20;;;;;;;11.58;63.93;99675.03;5090823;28;20153;-41
2023/11/16 03:00:36;;;;;;;1.75;0.93;;;;;;;11.31;64.54;99663.69;5090682;28;20043;-40
2023/11/16 03:03:05;;;;;;;1.20;0.80;;;;;;;11.46;63.80;99672.22;5090811;28;20440;-40
2023/11/16 03:05:31;;;;;;;1.15;1.00;;;;;;;11.20;64.62;99669.66;5090327;28;20020;-39
2023/11/16 03:07:57;;;;;;;1.05;0.95;;;;;;;11.22;64.42;99672.91;5090652;28;20094;-40
2023/11/16 03:10:23;;;;;;;0.90;0.90;;;;;;;11.21;64.33;99668.59;5090475;28;20064;-37
2023/11/16 03:12:49;;;;;;;1.83;1.00;;;;;;;10.93;66.04;99672.38;5092655;28;20023;-40
2023/11/16 03:15:14;;;;;;;1.48;1.00;;;;;;;11.02;65.01;99683.59;5111152;28;20019;-40
2023/11/16 03:17:43;;;;;;;1.00;0.90;;;;;;;11.13;65.00;99682.97;5112155;28;20107;-40
2023/11/16 03:20:13;;;;;;;1.17;1.08;;;;;;;10.90;65.68;99686.09;5114705;28;20028;-40
2023/11/16 03:22:39;;;;;;;1.95;0.95;;;;;;;11.01;64.93;99696.09;5114592;28;20023;-38
2023/11/16 03:25:06;;;;;;;1.10;0.90;;;;;;;11.10;64.87;99699.34;5108472;28;20028;-37
2023/11/16 03:27:32;;;;;;;1.23;0.98;;;;;;;10.94;66.16;99705.94;5093867;28;20016;-39
2023/11/16 03:29:58;;;;;;;0.98;0.90;;;;;;;11.23;64.37;99711.84;5093910;28;20088;-39
2023/11/16 03:32:23;;;;;;;2.63;1.30;;;;;;;11.02;65.09;99704.91;5093719;28;20028;-38
2023/11/16 03:34:49;;;;;;;2.35;1.20;;;;;;;10.98;65.39;99725.78;5093916;28;20016;-39
2023/11/16 03:37:19;;;;;;;1.85;0.95;;;;;;;10.99;65.37;99718.66;5094002;28;20055;-39
2023/11/16 03:39:47;;;;;;;2.90;1.10;;;;;;;10.82;64.98;99727.03;5102395;28;20027;-39
2023/11/16 03:42:12;;;;;;;7.75;5.22;;;;;;;10.85;65.86;99731.13;5113756;28;20054;-39
2023/11/16 03:44:38;;;;;;;1.52;1.30;;;;;;;10.92;64.28;99731.94;5113919;28;20452;-37
2023/11/16 03:47:04;;;;;;;1.25;1.00;;;;;;;11.10;63.89;99741.97;5113651;28;20044;-40
2023/11/16 03:49:29;;;;;;;1.50;1.20;;;;;;;11.20;63.01;99746.91;5114045;28;20028;-39
2023/11/16 03:51:57;;;;;;;1.13;1.02;;;;;;;11.44;62.22;99756.03;5113810;28;20109;-40
2023/11/16 03:54:23;;;;;;;2.22;1.40;;;;;;;11.25;61.70;99736.41;5114067;28;20020;-40
2023/11/16 03:56:49;;;;;;;3.15;1.08;;;;;;;11.27;61.83;99753.84;5113834;27;20447;-40
2023/11/16 03:59:21;;;;;;;1.15;1.00;;;;;;;11.09;61.48;99761.66;5134303;27;20026;-38
2023/11/16 04:01:48;;;;;;;1.83;1.15;;;;;;;11.22;61.47;99758.16;5125951;27;20097;-39
2023/11/16 04:04:14;;;;;;;2.08;1.17;;;;;;;11.36;61.01;99765.09;5113930;28;20023;-40
2023/11/16 04:06:40;;;;;;;1.42;0.95;;;;;;;11.44;60.76;99761.38;5113317;28;20096;-40
2023/11/16 04:09:07;;;;;;;1.55;0.88;;;;;;;11.40;59.99;99762.81;5113339;28;20397;-37
2023/11/16 04:11:33;;;;;;;4.32;1.10;;;;;;;11.46;59.55;99754.00;5113551;28;20016;-40
2023/11/16 04:13:58;;;;;;;1.63;1.20;;;;;;;11.24;60.72;99758.75;5112978;28;20102;-40
2023/11/16 04:16:25;;;;;;;2.30;1.15;;;;;;;11.27;60.60;99756.50;5113062;28;20107;-40
2023/11/16 04:18:55;;;;;;;1.90;1.20;;;;;;;11.34;59.55;99751.97;5112950;28;20019;-40
2023/11/16 04:21:21;;;;;;;1.90;1.17;;;;;;;11.31;60.62;99767.56;5112973;28;20475;-40
2023/11/16 04:23:56;;;;;;;2.00;1.25;;;;;;;11.58;59.28;99770.19;5113124;28;20106;-40
2023/11/16 04:26:23;;;;;;;1.92;1.45;;;;;;;11.24;60.52;99780.06;5112862;28;20024;-39
2023/11/16 04:28:51;;;;;;;2.65;1.23;;;;;;;11.06;60.68;99768.22;5111809;28;20123;-39
2023/11/16 04:31:17;;;;;;;1.60;1.15;;;;;;;11.31;60.52;99789.69;5113049;28;20506;-41
2023/11/16 04:33:42;;;;;;;1.55;0.95;;;;;;;11.34;61.03;99786.59;5112083;28;20043;-39
2023/11/16 04:36:10;;;;;;;1.80;1.40;;;;;;;11.28;60.15;99791.94;5112893;28;20098;-40
2023/11/16 04:38:36;;;;;;;1.38;1.17;;;;;;;11.31;60.83;99797.69;5113003;28;20103;-40
2023/11/16 04:41:04;;;;;;;4.05;1.20;;;;;;;11.24;60.78;99790.72;5112612;28;20423;-39
2023/11/16 04:43:33;;;;;;;2.75;1.17;;;;;;;11.26;60.94;99788.69;5112282;28;20020;-38
2023/11/16 04:45:59;;;;;;;1.52;1.17;;;;;;;11.16;61.06;99789.09;5112560;28;20487;-40
2023/11/16 04:48:24;;;;;;;2.53;1.45;;;;;;;11.14;60.96;99780.50;5112248;28;20108;-39
2023/11/16 04:50:50;;;;;;;1.17;1.08;;;;;;;11.11;60.41;99802.19;5112341;27;20030;-40
2023/11/16 04:53:15;;;;;;;2.97;1.50;;;;;;;11.12;61.01;99810.00;5113358;27;20513;-40
2023/11/16 04:55:40;;;;;;;2.60;1.10;;;;;;;11.12;60.42;99799.34;5110381;28;20465;-39
2023/11/16 04:58:06;;;;;;;3.13;1.10;;;;;;;11.00;61.30;99805.47;5107606;28;20035;-26
2023/11/16 05:00:32;;;;;;;2.35;1.42;;;;;;;11.00;61.00;99800.97;5111493;28;20507;-41
2023/11/16 05:02:58;;;;;;;2.53;1.30;;;;;;;11.08;60.22;99803.44;5112670;28;20055;-38
2023/11/16 05:05:23;;;;;;;1.63;1.50;;;;;;;11.32;59.97;99809.97;5112580;28;20027;-38
2023/11/16 05:07:48;;;;;;;3.38;2.08;;;;;;;11.17;60.23;99795.25;5112632;28;20050;-39
2023/11/16 05:10:16;;;;;;;3.92;1.70;;;;;;;11.23;59.89;99800.56;5112399;28;20037;-38
2023/11/16 05:12:42;;;;;;;2.28;1.30;;;;;;;11.36;60.03;99807.72;5111225;28;20028;-27
2023/11/16 05:15:10;;;;;;;2.30;1.67;;;;;;;11.03;61.19;99810.41;5111839;28;20072;-26
2023/11/16 05:17:35;;;;;;;5.07;1.90;;;;;;;10.89;60.86;99807.75;5111677;28;20088;-29
2023/11/16 05:20:02;;;;;;;3.45;1.80;;;;;;;11.26;60.32;99823.31;5110994;28;20024;-26
2023/11/16 05:22:27;;;;;;;3.17;1.60;;;;;;;11.66;59.02;99825.91;5111459;28;20130;-28
2023/11/16 05:24:52;;;;;;;2.00;1.35;;;;;;;11.45;59.94;99830.47;5111400;28;20122;-28
2023/11/16 05:27:18;;;;;;;5.72;1.73;;;;;;;11.62;59.04;99830.84;5111503;28;20638;-28
2023/11/16 05:29:44;;;;;;;2.10;1.40;;;;;;;11.73;58.42;99846.19;5111492;28;20032;-26
2023/11/16 05:32:10;;;;;;;2.63;1.63;;;;;;;11.91;58.38;99845.56;5111417;28;20023;-28
2023/11/16 05:34:37;;;;;;;3.92;2.03;;;;;;;12.02;59.05;99859.28;5111375;28;20025;-27
2023/11/16 05:37:03;;;;;;;6.03;3.15;;;;;;;12.03;58.21;99851.09;5112138;28;20047;-27
2023/11/16 05:39:28;;;;;;;3.92;1.88;;;;;;;12.38;57.52;99872.09;5111004;28;20028;-40
2023/11/16 05:41:53;;;;;;;5.80;1.80;;;;;;;12.39;58.35;99862.22;5110862;28;20027;-39
2023/11/16 05:44:20;;;;;;;3.58;1.65;;;;;;;12.22;58.69;99853.88;5111968;28;20023;-42
2023/11/16 05:46:45;;;;;;;3.80;1.88;;;;;;;12.36;58.35;99855.47;5111167;28;20032;-40
2023/11/16 05:49:10;;;;;;;5.57;1.88;;;;;;;12.41;58.01;99865.50;5111554;28;20129;-41
2023/11/16 05:51:36;;;;;;;3.17;1.67;;;;;;;12.76;57.54;99873.94;5112369;28;20027;-41
2023/11/16 05:54:08;;;;;;;3.33;1.75;;;;;;;12.82;56.55;99866.94;5111255;28;20035;-39
2023/11/16 05:56:42;;;;;;;4.03;1.60;;;;;;;13.33;55.52;99871.31;5108729;28;20028;-40
2023/11/16 05:59:11;;;;;;;2.58;1.52;;;;;;;13.00;55.65;99866.19;5108026;28;20095;-41
2023/11/16 06:01:42;;;;;;;5.10;1.73;;;;;;;13.24;54.62;99868.06;5108706;28;20027;-39
2023/11/16 06:04:08;;;;;;;3.50;1.90;;;;;;;13.58;53.96;99875.84;5107470;28;20392;-44
2023/11/16 06:06:34;;;;;;;2.70;1.63;;;;;;;13.83;52.86;99881.97;5107515;28;20027;-40
2023/11/16 06:09:00;;;;;;;4.10;2.00;;;;;;;13.54;53.30;99890.69;5108405;28;20023;-40
2023/11/16 06:11:25;;;;;;;3.45;1.42;;;;;;;13.82;52.32;99880.34;5110323;28;20085;-42
2023/11/16 06:13:54;;;;;;;2.05;1.48;;;;;;;14.04;52.55;99895.94;5110431;28;20023;-41
2023/11/16 06:16:22;;;;;;;2.53;1.58;;;;;;;14.03;52.41;99897.81;5110930;28;20111;-40
2023/11/16 06:18:47;;;;;;;1.60;1.40;;;;;;;14.05;51.84;99897.56;5104954;28;20039;-39
2023/11/16 06:21:13;;;;;;;3.90;2.00;;;;;;;14.07;52.56;99912.38;5112105;28;20023;-39
2023/11/16 06:23:38;;;;;;;2.70;1.90;;;;;;;14.42;51.82;99927.03;5111893;28;20387;-40
2023/11/16 06:26:04;;;;;;;4.07;1.80;;;;;;;14.30;51.71;99921.59;5111183;28;20020;-41
2023/11/16 06:28:30;;;;;;;4.13;1.95;;;;;;;14.81;51.02;99928.44;5111615;28;20066;-40
2023/11/16 06:30:56;;;;;;;4.05;1.88;;;;;;;14.45;51.01;99924.72;5111338;28;20023;-38
2023/11/16 06:33:21;;;;;;;6.50;1.80;;;;;;;14.26;51.82;99925.78;5111047;28;20034;-40
2023/11/16 06:35:47;;;;;;;5.85;1.95;;;;;;;14.04;52.63;99922.72;5110414;28;20026;-41
2023/11/16 06:38:13;;;;;;;2.20;1.40;;;;;;;13.95;52.32;99929.38;5110207;28;20028;-40
2023/11/16 06:40:39;;;;;;;3.83;1.70;;;;;;;14.23;51.59;99934.25;5111033;28;20094;-43
2023/11/16 06:43:05;;;;;;;3.20;1.60;;;;;;;14.44;51.48;99931.09;5110857;28;20098;-42
2023/11/16 06:45:32;;;;;;;4.43;1.60;;;;;;;14.77;50.27;99935.25;5110749;28;20020;-41
2023/11/16 06:48:00;;;;;;;2.65;1.48;;;;;;;15.08;49.06;99936.09;5110658;28;20035;-39
2023/11/16 06:50:28;;;;;;;2.13;1.63;;;;;;;14.66;49.61;99936.03;5111176;28;20016;-41
2023/11/16 06:52:53;;;;;;;2.97;1.88;;;;;;;14.41;50.40;99955.66;5112930;28;20019;-41
2023/11/16 06:55:19;;;;;;;2.80;1.70;;;;;;;14.39;50.24;99944.38;5115112;28;20081;-43
2023/11/16 06:57:44;;;;;;;3.38;1.70;;;;;;;14.99;48.96;99962.38;5115013;28;20023;-40
2023/11/16 07:00:15;;;;;;;8.38;1.90;;;;;;;14.92;49.34;99950.94;5114774;28;20444;-41
2023/11/16 07:02:45;;;;;;;5.22;1.73;;;;;;;14.78;48.48;99947.63;5096641;28;20024;-43
2023/11/16 07:05:12;;;;;;;3.10;1.70;;;;;;;14.83;48.83;99958.50;5114947;28;20032;-42
2023/11/16 07:07:39;;;;;;;2.40;1.70;;;;;;;14.92;48.84;99950.94;5114833;28;20023;-40
2023/11/16 07:10:08;;;;;;;2.40;1.60;;;;;;;14.99;47.37;99959.72;5114916;28;20023;-41
2023/11/16 07:12:34;;;;;;;1.87;1.23;;;;;;;15.23;47.38;99957.94;5115039;28;20023;-41
2023/11/16 07:15:01;;;;;;;4.88;1.63;;;;;;;15.27;47.82;99958.28;5114397;28;20637;-41
2023/11/16 07:17:26;;;;;;;7.13;2.13;;;;;;;15.34;47.71;99960.88;5114728;28;20028;-40
2023/11/16 07:19:53;;;;;;;2.55;1.63;;;;;;;15.59;47.49;99971.41;5114472;28;20027;-41
2023/11/16 07:22:19;;;;;;;3.67;2.10;;;;;;;15.63;47.70;99975.25;5114403;28;20407;-41
2023/11/16 07:24:44;;;;;;;6.07;1.63;;;;;;;15.52;47.13;99986.81;5114278;28;20026;-41
2023/11/16 07:27:10;;;;;;;2.10;1.48;;;;;;;15.48;46.61;99986.44;5114431;28;20027;-41
2023/11/16 07:29:36;;;;;;;2.42;1.73;;;;;;;15.69;46.28;99986.94;5114636;28;20027;-42
2023/11/16 07:32:04;;;;;;;3.95;1.63;;;;;;;15.75;45.70;99976.13;5114268;28;20023;-41
2023/11/16 07:34:30;;;;;;;1.77;1.50;;;;;;;16.48;44.71;99979.38;5114216;28;20020;-42
2023/11/16 07:36:56;;;;;;;3.47;1.70;;;;;;;16.24;44.86;99978.59;5114816;28;20019;-39
2023/11/16 07:39:21;;;;;;;3.95;2.10;;;;;;;16.28;44.77;99979.75;5114219;28;20461;-38
2023/11/16 07:41:47;;;;;;;2.83;1.80;;;;;;;16.00;44.89;99983.97;5114100;28;20354;-41
2023/11/16 07:44:12;;;;;;;2.35;1.50;;;;;;;15.91;45.35;99984.53;5114094;28;20020;-43
2023/11/16 07:46:38;;;;;;;2.05;1.40;;;;;;;16.50;43.64;99984.50;5113771;28;20024;-43
2023/11/16 07:49:04;;;;;;;4.25;1.55;;;;;;;16.53;43.47;99982.16;5114428;28;20051;-42
2023/11/16 07:51:29;;;;;;;2.72;1.77;;;;;;;16.41;43.60;99987.56;5114011;28;20020;-39
2023/11/16 07:53:57;;;;;;;1.88;1.52;;;;;;;16.75;43.85;99985.03;5114063;28;20546;-40
2023/11/16 07:56:23;;;;;;;2.17;1.60;;;;;;;16.78;43.97;99979.19;5113966;28;20019;-40
2023/11/16 07:58:52;;;;;;;2.78;1.67;;;;;;;16.36;43.96;99989.31;5113909;28;20455;-40
2023/11/16 08:01:21;;;;;;;5.15;1.75;;;;;;;16.12;44.48;99985.81;5113744;28;20088;-41
2023/11/16 08:03:55;;;;;;;2.47;1.50;;;;;;;16.04;44.78;99992.38;5112489;28;20023;-41
2023/11/16 08:06:22;;;;;;;4.72;1.60;;;;;;;16.06;44.08;99995.63;5113994;28;20015;-40
2023/11/16 08:08:49;;;;;;;3.97;1.40;;;;;;;15.78;44.18;99981.03;5113820;28;20078;-42
2023/11/16 08:11:16;;;;;;;2.63;1.50;;;;;;;15.76;45.08;99995.72;5113890;28;20023;-40
2023/11/16 08:13:45;;;;;;;1.75;1.38;;;;;;;15.96;44.23;99992.72;5113518;28;20019;-41
2023/11/16 08:16:12;;;;;;;6.57;1.50;;;;;;;15.70;44.53;99983.22;5113514;28;20111;-43
2023/11/16 08:18:39;;;;;;;1.95;1.50;;;;;;;16.08;44.10;99993.53;5113176;28;20042;-40
2023/11/16 08:21:09;;;;;;;1.83;1.42;;;;;;;16.00;44.02;100005.44;5113777;28;20016;-40
2023/11/16 08:23:38;;;;;;;;;;;;;;;15.78;43.18;100004.34;5113822;28;20487;-43
2023/11/16 08:26:09;;;;;;;1.80;1.33;;;;;;;15.92;43.54;99986.19;5113232;28;19907;-43
2023/11/16 08:28:36;;;;;;;4.05;1.30;;;;;;;16.08;43.16;100003.47;5114140;28;20035;-42
2023/11/16 08:31:02;;;;;;;2.50;1.50;;;;;;;16.14;43.18;100006.00;5113482;28;20023;-40
2023/11/16 08:33:29;;;;;;;2.00;1.35;;;;;;;16.17;43.55;99999.38;5113080;28;20023;-41
2023/11/16 08:35:55;;;;;;;3.20;1.50;;;;;;;16.39;42.98;100004.94;5113261;28;20103;-40
2023/11/16 08:38:25;;;;;;;3.63;1.63;;;;;;;17.02;42.30;100003.34;5113145;28;20020;-40
2023/11/16 08:41:00;;;;;;;3.28;1.95;;;;;;;16.71;42.25;100002.66;5113231;28;20019;-40
2023/11/16 08:43:27;;;;;;;1.55;1.30;;;;;;;16.60;41.38;100003.50;5112925;28;20026;-41
2023/11/16 08:45:55;;;;;;;2.83;1.40;;;;;;;16.78;41.34;100007.94;5112739;28;20161;-41
2023/11/16 08:48:30;;;;;;;1.90;1.25;;;;;;;16.79;40.86;99996.94;5112737;28;20047;-37
2023/11/16 08:51:02;;;;;;;5.53;1.40;;;;;;;16.86;40.22;100007.56;5112713;28;20106;-43
2023/11/16 08:53:30;;;;;;;3.97;1.50;;;;;;;16.66;40.86;100005.28;5113077;28;20028;-40
2023/11/16 08:56:01;;;;;;;1.80;1.38;;;;;;;16.89;39.77;100009.81;5094786;28;20475;-38
2023/11/16 08:58:29;;;;;;;4.32;1.90;;;;;;;16.87;40.16;100019.13;5112640;28;20023;-40
2023/11/16 09:00:55;;;;;;;2.78;1.70;;;;;;;16.67;40.32;100014.94;5112821;28;20509;-40
2023/11/16 09:03:21;;;;;;;2.47;1.30;;;;;;;16.56;40.03;100013.94;5112715;28;20034;-43
2023/11/16 09:05:46;;;;;;;3.15;1.30;;;;;;;16.61;39.92;100007.84;5113308;28;20034;-41
2023/11/16 09:08:13;;;;;;;2.78;1.10;;;;;;;17.00;39.77;100005.41;5112868;28;20035;-39
2023/11/16 09:10:41;;;;;;;2.15;0.98;;;;;;;16.60;39.83;99998.13;5112884;28;20030;-43
2023/11/16 09:13:08;;;;;;;1.45;1.23;;;;;;;16.47;39.95;99995.72;5112276;28;20149;-40
2023/11/16 09:15:33;;;;;;;2.20;1.27;;;;;;;16.39;40.42;99997.72;5111666;28;20425;-38
2023/11/16 09:17:59;;;;;;;2.30;1.40;;;;;;;17.00;39.51;100000.88;5111907;28;20030;-42
2023/11/16 09:20:25;;;;;;;2.50;1.20;;;;;;;16.98;39.08;99999.47;5112114;28;20066;-40
2023/11/16 09:22:53;;;;;;;3.08;1.10;;;;;;;16.64;39.10;100009.22;5112304;28;20071;-40
2023/11/16 09:25:19;;;;;;;3.85;1.20;;;;;;;16.80;38.69;100003.13;5093959;28;20098;-40
2023/11/16 09:27:50;;;;;;;2.60;1.33;;;;;;;17.20;38.92;100007.69;5112209;28;20020;-38
2023/11/16 09:30:22;;;;;;;1.42;1.10;;;;;;;17.42;38.03;100004.31;5111888;28;20106;-39
2023/11/16 09:32:50;;;;;;;1.85;0.90;;;;;;;17.25;37.95;100004.28;5111795;28;20027;-42
2023/11/16 09:35:22;;;;;;;4.47;1.50;;;;;;;17.43;38.97;100011.34;5111927;28;20111;-42
2023/11/16 09:37:49;;;;;;;1.50;1.13;;;;;;;17.38;38.37;100010.19;5112320;28;20019;-41
2023/11/16 09:40:24;;;;;;;2.58;1.10;;;;;;;17.14;38.16;100003.28;5111875;28;20472;-41
2023/11/16 09:42:57;;;;;;;2.00;1.30;;;;;;;17.00;38.44;100006.25;5111901;28;20027;-40
2023/11/16 09:45:27;;;;;;;1.58;1.13;;;;;;;16.79;38.97;99993.41;5111944;28;20483;-39
2023/11/16 09:47:59;;;;;;;1.45;0.93;;;;;;;16.96;38.24;99997.03;5112010;28;20507;-41
2023/11/16 09:50:28;;;;;;;1.60;1.00;;;;;;;16.83;38.22;99999.16;5112156;28;20035;-43
2023/11/16 09:53:03;;;;;;;3.50;1.80;;;;;;;17.08;37.96;99990.81;5111865;28;20476;-40
2023/11/16 09:55:31;;;;;;;2.05;1.63;;;;;;;17.03;38.22;99983.44;5093822;28;20019;-40
2023/11/16 09:58:09;;;;;;;5.55;1.23;;;;;;;17.03;37.87;99986.13;5111763;28;20024;-41
2023/11/16 10:00:36;;;;;;;3.40;1.17;;;;;;;16.83;38.07;99977.66;5111564;28;20031;-39
2023/11/16 10:03:05;;;;;;;1.67;1.02;;;;;;;17.32;37.87;99984.22;5111698;28;20102;-40
2023/11/16 10:05:37;;;;;;;1.80;1.00;;;;;;;17.50;37.21;99974.34;5111768;28;20023;-39
2023/11/16 10:08:08;;;;;;;2.78;1.23;;;;;;;17.36;37.14;99976.50;5111725;28;20423;-38
2023/11/16 10:10:34;;;;;;;2.22;1.20;;;;;;;17.12;38.12;99971.25;5111663;28;20027;-40
2023/11/16 10:13:00;;;;;;;2.10;1.20;;;;;;;17.16;37.83;99976.97;5111383;28;20020;-43
2023/11/16 10:15:25;;;;;;;1.67;1.40;;;;;;;16.78;38.19;99973.81;5110955;28;20468;-41
2023/11/16 10:17:51;;;;;;;2.13;1.00;;;;;;;17.24;38.31;99973.06;5111451;28;20080;-39
2023/11/16 10:20:18;;;;;;;1.20;1.08;;;;;;;17.15;38.64;99981.53;5111470;28;20034;-41
2023/11/16 10:22:44;;;;;;;1.50;1.20;;;;;;;16.84;39.00;99985.50;5111553;28;20172;-39
2023/11/16 10:25:14;;;;;;;2.30;1.23;;;;;;;16.79;39.26;99953.94;5111395;28;20024;-39
2023/11/16 10:27:41;;;;;;;1.75;1.35;;;;;;;17.06;39.59;99968.69;5113169;28;20031;-42
2023/11/16 10:30:11;;;;;;;2.42;1.27;;;;;;;17.10;39.03;99962.63;5115728;28;20031;-40
2023/11/16 10:32:38;;;;;;;1.67;1.10;;;;;;;17.12;38.62;99965.06;5115989;28;20259;-43
2023/11/16 10:35:09;;;;;;;1.33;1.10;;;;;;;17.25;38.97;99967.47;5115423;28;20027;-40
2023/11/16 10:37:35;;;;;;;1.45;1.15;;;;;;;17.25;38.26;99966.63;5115416;28;20028;-40
2023/11/16 10:40:03;;;;;;;4.40;1.17;;;;;;;17.20;38.31;99967.34;5115234;28;20023;-39
2023/11/16 10:42:28;;;;;;;1.30;1.10;;;;;;;17.30;38.47;99961.34;5115430;28;20410;-46
2023/11/16 10:44:55;;;;;;;3.58;1.10;;;;;;;17.23;37.91;99953.44;5115408;28;20031;-41
2023/11/16 10:47:22;;;;;;;1.00;0.90;;;;;;;17.17;37.58;99949.00;5115055;28;20135;-39
2023/11/16 10:49:48;;;;;;;2.72;1.33;;;;;;;17.15;37.70;99949.28;5115022;28;20122;-44
2023/11/16 10:52:15;;;;;;;2.40;1.20;;;;;;;16.95;38.44;99955.06;5115113;28;20415;-36
2023/11/16 10:54:46;;;;;;;2.75;1.02;;;;;;;17.41;37.57;99947.00;5115094;28;20032;-42
2023/11/16 10:57:16;;;;;;;1.73;0.93;;;;;;;17.20;37.65;99927.03;5115246;28;20098;-40
2023/11/16 10:59:47;;;;;;;2.45;1.00;;;;;;;17.15;37.64;99941.19;5115344;28;20038;-41
2023/11/16 11:02:15;;;;;;;1.40;1.05;;;;;;;17.49;37.24;99940.41;5115021;28;20127;-40
2023/11/16 11:04:41;;;;;;;2.35;1.80;;;;;;;17.58;37.50;99934.38;5114823;28;20029;-42
2023/11/16 11:07:13;;;;;;;2.13;1.00;;;;;;;17.67;37.91;99939.34;5114924;28;20037;-42
2023/11/16 11:09:42;;;;;;;1.85;1.10;;;;;;;17.27;37.17;99933.06;5115071;28;20027;-42
2023/11/16 11:12:13;;;;;;;2.13;1.25;;;;;;;17.12;37.83;99948.94;5114808;28;20024;-40
2023/11/16 11:14:51;;;;;;;2.13;0.80;;;;;;;16.96;37.94;99937.06;5114695;28;20026;-40
2023/11/16 11:17:26;;;;;;;2.13;1.08;;;;;;;17.03;37.92;99939.63;5114724;28;20585;-41
2023/11/16 11:19:56;;;;;;;3.67;1.10;;;;;;;17.31;37.31;99934.22;5114853;28;20032;-40
2023/11/16 11:22:31;;;;;;;3.20;1.02;;;;;;;17.22;37.20;99932.16;5114465;28;20408;-39
2023/11/16 11:24:57;;;;;;;1.25;1.08;;;;;;;17.17;37.78;99928.34;5114716;28;20035;-41
2023/11/16 11:27:25;;;;;;;4.28;1.20;;;;;;;17.55;37.02;99928.66;5114767;28;20023;-42
2023/11/16 11:29:53;;;;;;;0.77;0.68;;;;;;;17.45;36.03;99937.38;5114217;28;20035;-40
2023/11/16 11:32:26;;;;;;;1.02;0.82;;;;;;;17.36;36.95;99930.78;5114526;28;20505;-39